Time;durP1;ratioP1;P1;durP2;ratioP2;P2;SDS_P1;SDS_P2;PMS_P1;PMS_P2;Temp;Humidity;BMP_temperature;BMP_pressure;BME280_temperature;BME280_humidity;BME280_pressure;Samples;Min_cycle;Max_cycle;Signal;HPM_P1;HPM_P2
2021/08/26 00:06:24;;;;;;;4.53;1.73;;;;;;;;;;10252306;28;20359;-65
2021/08/26 00:11:23;;;;;;;1.60;0.75;;;;;;;;;;10273021;28;20038;-65
2021/08/26 00:16:23;;;;;;;3.80;1.02;;;;;;;;;;10261837;28;20060;-66
2021/08/26 00:21:21;;;;;;;0.75;0.65;;;;;;;;;;10285347;28;20091;-65
2021/08/26 00:26:18;;;;;;;7.70;1.40;;;;;;;;;;10266563;28;20034;-63
2021/08/26 00:31:16;;;;;;;2.80;1.70;;;;;;;;;;10296538;28;20037;-63
2021/08/26 00:36:13;;;;;;;6.03;1.23;;;;;;;;;;10266541;28;20361;-64
2021/08/26 00:41:11;;;;;;;2.03;1.13;;;;;;;;;;10276762;28;20156;-65
2021/08/26 00:46:12;;;;;;;14.70;2.88;;;;;;;;;;10283649;28;20037;-64
2021/08/26 00:51:10;;;;;;;6.65;1.33;;;;;;;;;;10286935;28;20501;-64
2021/08/26 00:56:14;;;;;;;3.43;1.10;;;;;;;;;;10293091;28;20033;-64
2021/08/26 01:01:11;;;;;;;7.68;1.10;;;;;;;;;;10260542;28;20415;-63
2021/08/26 01:06:13;;;;;;;15.10;1.80;;;;;;;;;;10283890;28;20074;-64
2021/08/26 01:11:11;;;;;;;4.82;1.60;;;;;;;;;;10262674;28;20430;-65
2021/08/26 01:16:12;;;;;;;5.85;1.85;;;;;;;;;;10250369;28;20046;-66
2021/08/26 01:21:14;;;;;;;7.22;1.17;;;;;;;;;;10290964;28;20509;-64
2021/08/26 01:26:16;;;;;;;7.30;1.38;;;;;;;;;;10283860;28;20048;-65
2021/08/26 01:31:13;;;;;;;3.45;1.08;;;;;;;;;;10274327;28;20046;-66
2021/08/26 01:36:11;;;;;;;8.13;1.63;;;;;;;;;;10285789;28;20048;-64
2021/08/26 01:41:09;;;;;;;14.67;1.67;;;;;;;;;;10285366;28;20043;-64
2021/08/26 01:46:06;;;;;;;8.80;2.00;;;;;;;;;;10262667;28;20050;-65
2021/08/26 01:51:03;;;;;;;13.73;1.37;;;;;;;;;;10295728;28;20065;-63
2021/08/26 01:56:01;;;;;;;13.10;1.20;;;;;;;;;;10303027;28;20099;-64
2021/08/26 02:00:58;;;;;;;7.17;1.57;;;;;;;;;;10288546;28;20116;-64
2021/08/26 02:05:56;;;;;;;3.37;0.80;;;;;;;;;;10290117;28;20038;-64
2021/08/26 02:10:53;;;;;;;1.47;0.87;;;;;;;;;;10294075;28;20472;-62
2021/08/26 02:15:50;;;;;;;5.63;1.00;;;;;;;;;;10292653;28;20025;-63
2021/08/26 02:20:48;;;;;;;3.87;1.40;;;;;;;;;;10290266;28;20052;-64
2021/08/26 02:25:45;;;;;;;10.80;1.77;;;;;;;;;;10296923;28;20029;-62
2021/08/26 02:30:43;;;;;;;8.80;1.70;;;;;;;;;;10282593;28;20030;-64
2021/08/26 02:35:41;;;;;;;6.93;1.77;;;;;;;;;;10263332;28;20029;-63
2021/08/26 02:40:38;;;;;;;8.80;1.23;;;;;;;;;;10249735;28;20399;-64
2021/08/26 02:45:35;;;;;;;12.57;2.83;;;;;;;;;;10271640;28;20072;-65
2021/08/26 02:50:33;;;;;;;11.07;2.10;;;;;;;;;;10294399;28;20034;-64
2021/08/26 02:55:30;;;;;;;8.43;2.63;;;;;;;;;;10297873;28;20057;-64
2021/08/26 03:00:28;;;;;;;6.37;1.23;;;;;;;;;;10254943;28;20114;-64
2021/08/26 03:05:25;;;;;;;4.60;0.70;;;;;;;;;;10327323;28;20037;-64
2021/08/26 03:10:23;;;;;;;4.70;1.57;;;;;;;;;;10329295;28;20044;-64
2021/08/26 03:15:21;;;;;;;;;;;;;;;;;;10346190;28;20045;-63
2021/08/26 03:20:20;;;;;;;13.93;1.83;;;;;;;;;;10308806;28;19917;-64
2021/08/26 03:25:18;;;;;;;19.35;4.25;;;;;;;;;;10306212;28;20102;-65
2021/08/26 03:30:15;;;;;;;9.77;3.57;;;;;;;;;;10272632;28;20610;-64
2021/08/26 03:35:13;;;;;;;10.63;1.47;;;;;;;;;;10280922;28;20186;-66
2021/08/26 03:40:11;;;;;;;4.87;1.63;;;;;;;;;;10304532;28;20354;-64
2021/08/26 03:45:08;;;;;;;16.93;2.90;;;;;;;;;;10317899;28;20034;-64
2021/08/26 03:50:06;;;;;;;16.67;3.07;;;;;;;;;;10296598;28;20033;-63
2021/08/26 03:55:04;;;;;;;17.43;3.47;;;;;;;;;;10296815;28;20071;-65
2021/08/26 04:00:01;;;;;;;15.70;4.03;;;;;;;;;;10290517;28;20050;-63
2021/08/26 04:04:58;;;;;;;18.07;3.00;;;;;;;;;;10277805;28;20038;-65
2021/08/26 04:09:56;;;;;;;18.57;2.97;;;;;;;;;;10311627;28;20037;-65
2021/08/26 04:14:54;;;;;;;4.47;1.70;;;;;;;;;;10288445;28;20037;-66
2021/08/26 04:19:51;;;;;;;12.83;2.57;;;;;;;;;;10276150;28;20034;-65
2021/08/26 04:24:48;;;;;;;10.00;1.53;;;;;;;;;;10333522;28;20441;-63
2021/08/26 04:29:46;;;;;;;18.17;2.87;;;;;;;;;;10264910;28;20045;-65
2021/08/26 04:34:43;;;;;;;4.73;1.67;;;;;;;;;;10289448;28;20033;-65
2021/08/26 04:39:41;;;;;;;11.07;2.30;;;;;;;;;;10296280;28;20252;-65
2021/08/26 04:44:38;;;;;;;23.23;3.33;;;;;;;;;;10267181;28;20060;-67
2021/08/26 04:49:36;;;;;;;9.38;2.30;;;;;;;;;;10292832;28;20403;-63
2021/08/26 04:54:33;;;;;;;10.13;2.60;;;;;;;;;;10309976;28;20076;-64
2021/08/26 04:59:31;;;;;;;15.93;3.57;;;;;;;;;;10303166;28;20039;-66
2021/08/26 05:04:29;;;;;;;16.60;2.70;;;;;;;;;;10284348;28;20115;-63
2021/08/26 05:09:26;;;;;;;14.67;2.23;;;;;;;;;;10304966;28;20041;-66
2021/08/26 05:14:24;;;;;;;6.53;1.83;;;;;;;;;;10316556;28;20049;-66
2021/08/26 05:19:22;;;;;;;4.95;1.17;;;;;;;;;;10302390;28;20034;-63
2021/08/26 05:24:19;;;;;;;10.43;2.23;;;;;;;;;;10289596;28;20514;-64
2021/08/26 05:29:17;;;;;;;4.90;1.23;;;;;;;;;;10280491;28;20034;-65
2021/08/26 05:34:14;;;;;;;8.03;1.63;;;;;;;;;;10296033;28;20056;-64
2021/08/26 05:39:11;;;;;;;7.00;1.83;;;;;;;;;;10296359;28;20128;-64
2021/08/26 05:44:09;;;;;;;12.47;2.70;;;;;;;;;;10248272;28;21096;-64
2021/08/26 05:49:06;;;;;;;11.47;3.20;;;;;;;;;;10261598;28;20034;-65
2021/08/26 05:54:04;;;;;;;8.73;3.07;;;;;;;;;;10251419;28;20068;-64
2021/08/26 05:59:01;;;;;;;15.00;3.10;;;;;;;;;;10264811;28;20814;-64
2021/08/26 06:03:58;;;;;;;22.73;3.00;;;;;;;;;;10226592;28;20420;-67
2021/08/26 06:08:56;;;;;;;12.67;2.40;;;;;;;;;;10268819;28;20030;-64
2021/08/26 06:13:53;;;;;;;11.50;1.93;;;;;;;;;;10274022;28;20029;-67
2021/08/26 06:18:51;;;;;;;13.67;2.27;;;;;;;;;;10258385;28;20037;-64
2021/08/26 06:23:48;;;;;;;12.27;2.60;;;;;;;;;;10277026;28;20029;-66
2021/08/26 06:28:45;;;;;;;4.67;1.17;;;;;;;;;;10253923;28;20516;-67
2021/08/26 06:33:44;;;;;;;7.40;1.87;;;;;;;;;;10267949;28;20498;-66
2021/08/26 06:38:41;;;;;;;10.55;2.53;;;;;;;;;;10279894;28;20030;-63
2021/08/26 06:43:38;;;;;;;7.07;2.37;;;;;;;;;;10275081;28;20038;-64
2021/08/26 06:48:36;;;;;;;7.93;2.03;;;;;;;;;;10299019;28;20046;-68
2021/08/26 06:53:33;;;;;;;10.20;2.23;;;;;;;;;;10282488;28;20088;-67
2021/08/26 06:58:31;;;;;;;3.50;0.93;;;;;;;;;;10287141;28;20072;-67
2021/08/26 07:03:28;;;;;;;2.70;0.83;;;;;;;;;;10297793;28;20030;-64
2021/08/26 07:08:25;;;;;;;4.43;0.83;;;;;;;;;;10279067;28;20529;-65
2021/08/26 07:13:23;;;;;;;6.23;1.43;;;;;;;;;;10289692;28;20124;-64
2021/08/26 07:18:20;;;;;;;3.63;0.90;;;;;;;;;;10275460;28;20052;-64
2021/08/26 07:23:18;;;;;;;9.67;1.43;;;;;;;;;;10282898;28;20037;-63
2021/08/26 07:28:15;;;;;;;5.00;0.80;;;;;;;;;;10261246;28;20409;-65
2021/08/26 07:33:12;;;;;;;3.10;1.00;;;;;;;;;;10296460;28;20241;-66
2021/08/26 07:38:10;;;;;;;1.70;0.73;;;;;;;;;;10284302;28;20423;-66
2021/08/26 07:43:07;;;;;;;2.77;0.50;;;;;;;;;;10290870;28;20041;-65
2021/08/26 07:48:05;;;;;;;0.23;0.20;;;;;;;;;;10272971;28;20048;-64
2021/08/26 07:53:02;;;;;;;1.03;0.37;;;;;;;;;;10292917;28;20498;-63
2021/08/26 07:58:00;;;;;;;0.10;0.10;;;;;;;;;;10293068;28;20037;-64
2021/08/26 08:02:57;;;;;;;4.33;0.93;;;;;;;;;;10272226;28;20491;-66
2021/08/26 08:07:54;;;;;;;0.30;0.30;;;;;;;;;;10295765;28;20741;-62
2021/08/26 08:12:52;;;;;;;2.60;0.70;;;;;;;;;;10288970;28;20065;-64
2021/08/26 08:17:49;;;;;;;11.57;0.97;;;;;;;;;;10292727;28;20025;-66
2021/08/26 08:22:48;;;;;;;0.43;0.30;;;;;;;;;;10261734;28;20037;-65
2021/08/26 08:27:45;;;;;;;2.60;0.60;;;;;;;;;;10259479;28;20048;-65
2021/08/26 08:32:43;;;;;;;3.93;0.57;;;;;;;;;;10269640;28;20040;-67
2021/08/26 08:37:40;;;;;;;4.30;0.80;;;;;;;;;;10276678;28;20034;-66
2021/08/26 08:42:37;;;;;;;0.60;0.40;;;;;;;;;;10280764;28;20052;-64
2021/08/26 08:47:36;;;;;;;1.77;0.40;;;;;;;;;;10282437;28;20042;-64
2021/08/26 08:52:40;;;;;;;0.10;0.10;;;;;;;;;;10248055;28;20116;-65
2021/08/26 08:57:41;;;;;;;0.40;0.30;;;;;;;;;;10260387;28;20037;-64
2021/08/26 09:02:39;;;;;;;0.75;0.20;;;;;;;;;;10262908;28;20494;-63
2021/08/26 09:07:37;;;;;;;1.45;0.60;;;;;;;;;;10269321;28;20041;-65
2021/08/26 09:12:44;;;;;;;0.68;0.20;;;;;;;;;;10300259;28;20168;-66
2021/08/26 09:17:42;;;;;;;0.88;0.38;;;;;;;;;;10275779;28;20462;-66
2021/08/26 09:22:39;;;;;;;4.30;0.20;;;;;;;;;;10288151;28;20179;-65
2021/08/26 09:27:39;;;;;;;3.10;0.40;;;;;;;;;;10281087;28;20045;-64
2021/08/26 09:32:47;;;;;;;3.17;0.80;;;;;;;;;;10282220;28;20414;-65
2021/08/26 09:37:46;;;;;;;0.90;0.20;;;;;;;;;;10244489;28;20116;-63
2021/08/26 09:42:44;;;;;;;2.00;0.25;;;;;;;;;;10253938;28;20399;-65
2021/08/26 09:48:01;;;;;;;2.20;0.40;;;;;;;;;;10237976;28;20073;-64
2021/08/26 09:52:58;;;;;;;1.70;0.30;;;;;;;;;;10245997;28;20107;-63
2021/08/26 09:58:28;;;;;;;1.10;0.30;;;;;;;;;;10262981;28;20090;-64
2021/08/26 10:03:30;;;;;;;4.30;0.57;;;;;;;;;;10209410;28;20034;-64
2021/08/26 10:08:29;;;;;;;1.75;0.25;;;;;;;;;;10262228;28;20406;-63
2021/08/26 10:13:30;;;;;;;0.73;0.32;;;;;;;;;;10258582;28;20390;-60
2021/08/26 10:18:28;;;;;;;4.05;0.30;;;;;;;;;;10246077;28;20053;-63
2021/08/26 10:23:26;;;;;;;0.38;0.20;;;;;;;;;;10253394;28;20033;-63
2021/08/26 10:28:24;;;;;;;0.25;0.10;;;;;;;;;;10244639;28;20091;-65
2021/08/26 10:33:24;;;;;;;1.40;0.30;;;;;;;;;;10247894;28;20034;-65
2021/08/26 10:38:22;;;;;;;1.65;0.15;;;;;;;;;;10239879;28;20401;-63
2021/08/26 10:43:33;;;;;;;1.35;0.20;;;;;;;;;;10263578;28;20038;-63
2021/08/26 10:48:30;;;;;;;0.25;0.20;;;;;;;;;;10264023;28;20139;-64
2021/08/26 10:53:29;;;;;;;0.88;0.38;;;;;;;;;;10264920;28;20034;-64
2021/08/26 10:58:28;;;;;;;0.80;0.10;;;;;;;;;;10288926;28;20041;-63
2021/08/26 11:03:32;;;;;;;1.13;0.20;;;;;;;;;;10230303;28;20499;-63
2021/08/26 11:08:30;;;;;;;2.92;0.60;;;;;;;;;;10269192;28;20116;-64
2021/08/26 11:13:28;;;;;;;;;;;;;;;;;;10255645;28;20125;-63
2021/08/26 11:18:26;;;;;;;2.63;0.32;;;;;;;;;;10265258;28;19925;-64
2021/08/26 11:23:46;;;;;;;0.70;0.30;;;;;;;;;;10262333;28;20518;-64
2021/08/26 11:28:44;;;;;;;0.93;0.40;;;;;;;;;;10271744;28;20039;-63
2021/08/26 11:33:41;;;;;;;;;;;;;;;;;;10260470;28;20520;-63
2021/08/26 11:38:50;;;;;;;2.25;0.30;;;;;;;;;;10251813;28;20324;-64
2021/08/26 11:43:47;;;;;;;1.50;0.45;;;;;;;;;;10260835;28;20423;-64
2021/08/26 11:48:48;;;;;;;2.03;0.47;;;;;;;;;;10261542;28;20041;-64
2021/08/26 11:53:46;;;;;;;0.88;0.40;;;;;;;;;;10274595;28;20284;-65
2021/08/26 11:58:43;;;;;;;;;;;;;;;;;;10268094;28;20495;-65
2021/08/26 12:03:50;;;;;;;0.97;0.30;;;;;;;;;;10265960;28;20328;-62
2021/08/26 12:08:48;;;;;;;0.25;0.10;;;;;;;;;;10266323;28;20056;-64
2021/08/26 12:13:46;;;;;;;3.35;0.55;;;;;;;;;;10278089;28;20481;-65
2021/08/26 12:18:44;;;;;;;1.33;0.57;;;;;;;;;;10261663;28;20128;-62
2021/08/26 12:23:42;;;;;;;;;;;;;;;;;;10280267;28;20155;-63
2021/08/26 12:28:59;;;;;;;0.90;0.47;;;;;;;;;;10275800;28;19968;-63
2021/08/26 12:33:59;;;;;;;0.20;0.10;;;;;;;;;;10278238;28;20050;-63
2021/08/26 12:38:56;;;;;;;1.60;0.13;;;;;;;;;;10278887;28;20065;-63
2021/08/26 12:43:54;;;;;;;;;;;;;;;;;;10270853;28;20454;-65
2021/08/26 12:49:02;;;;;;;1.27;0.20;;;;;;;;;;10267592;28;19959;-64
2021/08/26 12:54:03;;;;;;;2.80;0.32;;;;;;;;;;10274662;28;20503;-63
2021/08/26 12:59:03;;;;;;;9.07;0.57;;;;;;;;;;10277737;28;20321;-62
2021/08/26 13:04:02;;;;;;;0.60;0.30;;;;;;;;;;10260475;28;20037;-65
2021/08/26 13:09:05;;;;;;;1.13;0.55;;;;;;;;;;10267781;28;20072;-64
2021/08/26 13:14:03;;;;;;;0.10;0.00;;;;;;;;;;10252025;28;20121;-62
2021/08/26 13:19:00;;;;;;;2.22;0.68;;;;;;;;;;10258777;28;20124;-62
2021/08/26 13:23:58;;;;;;;0.30;0.17;;;;;;;;;;10276561;28;20133;-64
2021/08/26 13:28:55;;;;;;;1.92;0.25;;;;;;;;;;10274554;28;20064;-63
2021/08/26 13:33:53;;;;;;;;;;;;;;;;;;10275417;28;20033;-62
2021/08/26 13:38:50;;;;;;;2.00;0.20;;;;;;;;;;10274625;28;19918;-62
2021/08/26 13:43:48;;;;;;;0.20;0.20;;;;;;;;;;10264067;28;21027;-64
2021/08/26 13:48:45;;;;;;;;;;;;;;;;;;10273002;28;20037;-65
2021/08/26 13:53:46;;;;;;;0.52;0.20;;;;;;;;;;10272794;28;20546;-67
2021/08/26 13:58:44;;;;;;;3.75;0.55;;;;;;;;;;10263537;28;20099;-62
2021/08/26 14:03:41;;;;;;;0.13;0.13;;;;;;;;;;10276443;28;20030;-64
2021/08/26 14:08:39;;;;;;;1.58;0.30;;;;;;;;;;10283827;28;20284;-64
2021/08/26 14:13:36;;;;;;;;;;;;;;;;;;10266509;28;20040;-61
2021/08/26 14:18:34;;;;;;;2.20;0.55;;;;;;;;;;10281916;28;19968;-62
2021/08/26 14:23:31;;;;;;;0.10;0.10;;;;;;;;;;10264229;28;20045;-64
2021/08/26 14:28:28;;;;;;;;;;;;;;;;;;10273408;28;20524;-62
2021/08/26 14:33:26;;;;;;;1.48;0.30;;;;;;;;;;10277910;28;19913;-65
2021/08/26 14:38:23;;;;;;;;;;;;;;;;;;10264606;28;20426;-62
2021/08/26 14:43:21;;;;;;;2.53;0.63;;;;;;;;;;10240127;28;19917;-65
2021/08/26 14:48:18;;;;;;;;;;;;;;;;;;10273517;28;20038;-63
2021/08/26 14:53:15;;;;;;;1.13;0.38;;;;;;;;;;10275280;28;19917;-62
2021/08/26 14:58:13;;;;;;;;;;;;;;;;;;10280917;28;20045;-62
2021/08/26 15:03:10;;;;;;;1.07;0.30;;;;;;;;;;10279291;28;20338;-65
2021/08/26 15:08:07;;;;;;;;;;;;;;;;;;10278706;28;20036;-63
2021/08/26 15:13:05;;;;;;;0.25;0.10;;;;;;;;;;10280007;28;19913;-61
2021/08/26 15:18:03;;;;;;;;;;;;;;;;;;10259131;28;20051;-63
2021/08/26 15:23:00;;;;;;;0.13;0.13;;;;;;;;;;10285056;28;19951;-63
2021/08/26 15:27:57;;;;;;;;;;;;;;;;;;10265302;28;20029;-62
2021/08/26 15:32:55;;;;;;;3.00;0.60;;;;;;;;;;10296136;28;19935;-63
2021/08/26 15:37:52;;;;;;;;;;;;;;;;;;10277467;28;20049;-63
2021/08/26 15:42:52;;;;;;;1.05;0.38;;;;;;;;;;10279530;28;19909;-66
2021/08/26 15:47:51;;;;;;;0.88;0.30;;;;;;;;;;10280595;28;20033;-63
2021/08/26 15:52:53;;;;;;;1.67;0.50;;;;;;;;;;10265323;28;20371;-64
2021/08/26 16:02:48;;;;;;;;;;;;;;;;;;10287207;28;20022;-62
2021/08/26 16:07:46;;;;;;;0.63;0.20;;;;;;;;;;10274575;28;19913;-61
2021/08/26 16:12:48;;;;;;;;;;;;;;;;;;10287786;28;20064;-66
2021/08/26 16:17:46;;;;;;;3.40;1.20;;;;;;;;;;10250801;28;19966;-63
2021/08/26 16:22:45;;;;;;;2.38;0.50;;;;;;;;;;10280829;28;20037;-66
2021/08/26 16:27:44;;;;;;;1.70;0.55;;;;;;;;;;10273097;28;20021;-64
2021/08/26 16:32:42;;;;;;;1.10;0.40;;;;;;;;;;10277788;28;20046;-67
2021/08/26 16:37:44;;;;;;;0.98;0.47;;;;;;;;;;10279301;28;20037;-64
2021/08/26 16:42:42;;;;;;;3.50;0.57;;;;;;;;;;10283171;28;20033;-64
2021/08/26 16:47:39;;;;;;;1.40;0.43;;;;;;;;;;10283882;28;20668;-66
2021/08/26 16:52:37;;;;;;;;;;;;;;;;;;10260331;28;20049;-62
2021/08/26 16:57:34;;;;;;;2.20;1.37;;;;;;;;;;10261315;28;19929;-63
2021/08/26 17:02:31;;;;;;;4.93;0.97;;;;;;;;;;10249312;28;20032;-62
2021/08/26 17:07:29;;;;;;;5.03;1.53;;;;;;;;;;10273219;28;20412;-64
2021/08/26 17:12:31;;;;;;;2.92;1.02;;;;;;;;;;10262810;28;20038;-64
2021/08/26 17:17:29;;;;;;;14.38;1.55;;;;;;;;;;10280994;28;20041;-65
2021/08/26 17:22:26;;;;;;;2.87;1.10;;;;;;;;;;10269755;28;20045;-62
2021/08/26 17:27:24;;;;;;;0.97;0.50;;;;;;;;;;10262655;28;20040;-64
2021/08/26 17:32:22;;;;;;;2.45;0.75;;;;;;;;;;10289301;28;20133;-63
2021/08/26 17:37:19;;;;;;;3.47;1.00;;;;;;;;;;10279813;28;20112;-62
2021/08/26 17:42:17;;;;;;;3.00;1.10;;;;;;;;;;10269837;28;20033;-66
2021/08/26 17:47:15;;;;;;;3.00;1.35;;;;;;;;;;10253861;28;20284;-63
2021/08/26 17:52:14;;;;;;;5.00;0.73;;;;;;;;;;10268515;28;20036;-63
2021/08/26 17:57:11;;;;;;;;;;;;;;;;;;10250096;28;20348;-63
2021/08/26 18:02:08;;;;;;;3.08;0.70;;;;;;;;;;10282614;28;19913;-64
2021/08/26 18:07:05;;;;;;;1.90;0.60;;;;;;;;;;10289020;28;20550;-64
2021/08/26 18:12:03;;;;;;;2.17;0.40;;;;;;;;;;10287785;28;20037;-65
2021/08/26 18:17:01;;;;;;;1.85;0.73;;;;;;;;;;10285732;28;20060;-64
2021/08/26 18:21:58;;;;;;;3.80;0.83;;;;;;;;;;10278847;28;20034;-66
2021/08/26 18:26:57;;;;;;;4.87;0.73;;;;;;;;;;10276416;28;20046;-65
2021/08/26 18:31:55;;;;;;;1.77;0.73;;;;;;;;;;10276215;28;20034;-63
2021/08/26 18:36:52;;;;;;;2.50;0.73;;;;;;;;;;10246622;28;20033;-63
2021/08/26 18:41:50;;;;;;;3.97;1.10;;;;;;;;;;10280331;28;20469;-64
2021/08/26 18:46:47;;;;;;;1.70;0.80;;;;;;;;;;10280592;28;20413;-64
2021/08/26 18:51:44;;;;;;;1.70;0.70;;;;;;;;;;10274182;28;20034;-66
2021/08/26 18:56:42;;;;;;;2.50;1.17;;;;;;;;;;10275967;28;20030;-64
2021/08/26 19:01:39;;;;;;;1.30;0.60;;;;;;;;;;10271801;28;20049;-63
2021/08/26 19:06:37;;;;;;;6.30;0.60;;;;;;;;;;10278227;28;20034;-62
2021/08/26 19:11:34;;;;;;;4.70;0.70;;;;;;;;;;10273711;28;20046;-63
2021/08/26 19:16:32;;;;;;;1.70;0.80;;;;;;;;;;10278602;28;20040;-63
2021/08/26 19:21:29;;;;;;;5.03;0.77;;;;;;;;;;10275317;28;20044;-64
2021/08/26 19:26:27;;;;;;;1.60;0.83;;;;;;;;;;10283469;28;20041;-63
2021/08/26 19:31:27;;;;;;;1.70;0.50;;;;;;;;;;10280215;28;20474;-63
2021/08/26 19:36:25;;;;;;;2.65;0.65;;;;;;;;;;10283427;28;21604;-63
2021/08/26 19:41:22;;;;;;;2.07;0.47;;;;;;;;;;10290837;28;20049;-62
2021/08/26 19:46:20;;;;;;;1.80;0.50;;;;;;;;;;10265099;28;20042;-65
2021/08/26 19:51:18;;;;;;;3.65;0.73;;;;;;;;;;10285166;28;20044;-63
2021/08/26 19:56:15;;;;;;;2.03;0.47;;;;;;;;;;10288612;28;20060;-65
2021/08/26 20:01:17;;;;;;;1.07;0.40;;;;;;;;;;10291036;28;20038;-64
2021/08/26 20:06:14;;;;;;;3.33;0.77;;;;;;;;;;10275452;28;20041;-63
2021/08/26 20:11:12;;;;;;;2.57;0.40;;;;;;;;;;10285222;28;20452;-64
2021/08/26 20:16:10;;;;;;;5.53;1.37;;;;;;;;;;10281977;28;20295;-63
2021/08/26 20:21:07;;;;;;;1.63;0.73;;;;;;;;;;10286822;28;20072;-62
2021/08/26 20:26:04;;;;;;;2.77;0.63;;;;;;;;;;10279419;28;20087;-66
2021/08/26 20:31:02;;;;;;;1.07;0.50;;;;;;;;;;10279524;28;20041;-62
2021/08/26 20:35:59;;;;;;;4.03;0.70;;;;;;;;;;10272549;28;20513;-64
2021/08/26 20:40:57;;;;;;;3.63;0.77;;;;;;;;;;10279017;28;20037;-63
2021/08/26 20:45:55;;;;;;;11.17;1.43;;;;;;;;;;10280825;28;20084;-63
2021/08/26 20:50:52;;;;;;;2.25;1.20;;;;;;;;;;10276967;28;20025;-63
2021/08/26 20:55:50;;;;;;;3.10;1.27;;;;;;;;;;10268968;28;20030;-62
2021/08/26 21:00:47;;;;;;;0.40;0.20;;;;;;;;;;10289792;28;20045;-64
2021/08/26 21:05:44;;;;;;;4.77;1.43;;;;;;;;;;10283641;28;20402;-63
2021/08/26 21:10:42;;;;;;;4.47;0.97;;;;;;;;;;10288700;28;20487;-62
2021/08/26 21:15:39;;;;;;;2.43;0.63;;;;;;;;;;10279903;28;20341;-65
2021/08/26 21:20:37;;;;;;;1.47;0.57;;;;;;;;;;10271293;28;20482;-62
2021/08/26 21:25:35;;;;;;;1.88;0.40;;;;;;;;;;10272300;28;20041;-61
2021/08/26 21:30:32;;;;;;;1.17;0.60;;;;;;;;;;10266191;28;20151;-64
2021/08/26 21:35:29;;;;;;;2.63;0.83;;;;;;;;;;10288338;28;20037;-60
2021/08/26 21:40:27;;;;;;;0.70;0.57;;;;;;;;;;10261480;28;20037;-62
2021/08/26 21:45:27;;;;;;;0.50;0.33;;;;;;;;;;10265581;28;20041;-64
2021/08/26 21:50:24;;;;;;;4.55;0.80;;;;;;;;;;10253213;28;20083;-63
2021/08/26 21:55:22;;;;;;;2.53;0.87;;;;;;;;;;10284756;28;20132;-63
2021/08/26 22:00:19;;;;;;;0.67;0.50;;;;;;;;;;10289628;28;20053;-63
2021/08/26 22:05:17;;;;;;;4.53;1.10;;;;;;;;;;10283560;28;20033;-63
2021/08/26 22:10:16;;;;;;;2.97;0.60;;;;;;;;;;10275595;28;20053;-64
2021/08/26 22:15:14;;;;;;;0.38;0.38;;;;;;;;;;10250557;28;20072;-62
2021/08/26 22:20:13;;;;;;;1.63;0.80;;;;;;;;;;10259344;28;20132;-62
2021/08/26 22:25:11;;;;;;;2.25;0.50;;;;;;;;;;10281861;28;20037;-63
2021/08/26 22:30:09;;;;;;;2.63;0.87;;;;;;;;;;10253724;28;20038;-67
2021/08/26 22:35:08;;;;;;;1.27;0.55;;;;;;;;;;10278129;28;20272;-65
2021/08/26 22:40:06;;;;;;;0.75;0.45;;;;;;;;;;10290876;28;20149;-65
2021/08/26 22:45:04;;;;;;;0.35;0.35;;;;;;;;;;10295415;28;20037;-64
2021/08/26 22:50:08;;;;;;;1.52;0.73;;;;;;;;;;10273630;28;20033;-65
2021/08/26 22:55:06;;;;;;;2.80;0.60;;;;;;;;;;10255496;28;20040;-64
2021/08/26 23:00:04;;;;;;;1.60;0.57;;;;;;;;;;10283982;28;20090;-65
2021/08/26 23:05:01;;;;;;;2.55;0.60;;;;;;;;;;10234760;28;20414;-66
2021/08/26 23:09:59;;;;;;;0.73;0.40;;;;;;;;;;10280706;28;20044;-66
2021/08/26 23:14:56;;;;;;;1.80;0.60;;;;;;;;;;10249793;28;20427;-66
2021/08/26 23:19:53;;;;;;;6.50;0.97;;;;;;;;;;10290895;28;20075;-65
2021/08/26 23:24:51;;;;;;;1.63;0.67;;;;;;;;;;10293802;28;20171;-62
2021/08/26 23:29:48;;;;;;;3.50;0.77;;;;;;;;;;10267986;28;20524;-66
2021/08/26 23:34:46;;;;;;;1.50;0.57;;;;;;;;;;10292038;28;20124;-66
2021/08/26 23:39:43;;;;;;;3.80;1.33;;;;;;;;;;10289859;28;20038;-66
2021/08/26 23:44:41;;;;;;;1.33;0.60;;;;;;;;;;10273074;28;20140;-66
2021/08/26 23:49:38;;;;;;;1.57;0.50;;;;;;;;;;10290704;28;20077;-65
2021/08/26 23:54:35;;;;;;;0.50;0.50;;;;;;;;;;10282486;28;21437;-65
2021/08/26 23:59:34;;;;;;;0.73;0.57;;;;;;;;;;10296895;28;20120;-65
